createdAt,value
2022-12-30T00:01:10.322Z,10.36
2022-12-30T00:03:42.268Z,10.38
2022-12-30T00:06:19.016Z,10.37
2022-12-30T00:08:54.285Z,10.33
2022-12-30T00:11:27.545Z,10.35
2022-12-30T00:14:19.547Z,10.32
2022-12-30T00:17:10.254Z,10.23
2022-12-30T00:20:02.070Z,10.30
2022-12-30T00:22:53.877Z,10.21
2022-12-30T00:25:46.571Z,10.18
2022-12-30T00:28:38.957Z,10.09
2022-12-30T00:31:32.912Z,10.15
2022-12-30T00:34:08.623Z,10.15
2022-12-30T00:36:41.297Z,10.10
2022-12-30T00:39:11.608Z,10.12
2022-12-30T00:42:01.428Z,10.10
2022-12-30T00:44:33.171Z,10.04
2022-12-30T00:47:05.605Z,10.09
2022-12-30T00:49:55.351Z,10.09
2022-12-30T00:52:44.746Z,10.08
2022-12-30T00:55:33.996Z,9.97
2022-12-30T00:58:05.978Z,9.98
2022-12-30T01:00:38.058Z,9.93
2022-12-30T01:03:10.005Z,9.97
2022-12-30T01:05:42.664Z,9.90
2022-12-30T01:08:14.690Z,9.85
2022-12-30T01:10:46.711Z,9.92
2022-12-30T01:13:18.971Z,9.96
2022-12-30T01:15:50.734Z,9.95
2022-12-30T01:18:22.717Z,9.93
2022-12-30T01:20:54.539Z,9.92
2022-12-30T01:23:26.279Z,9.89
2022-12-30T01:26:00.882Z,9.86
2022-12-30T01:28:34.397Z,9.81
2022-12-30T01:31:10.030Z,9.74
2022-12-30T01:33:41.726Z,9.62
2022-12-30T01:36:13.456Z,9.71
2022-12-30T01:38:45.660Z,9.62
2022-12-30T01:41:17.561Z,9.64
2022-12-30T01:43:51.449Z,9.65
2022-12-30T01:46:26.583Z,9.60
2022-12-30T01:49:00.432Z,9.64
2022-12-30T01:51:34.404Z,9.59
2022-12-30T01:54:06.710Z,9.60
2022-12-30T01:56:42.665Z,9.61
2022-12-30T01:59:17.879Z,9.56
2022-12-30T02:01:50.675Z,9.52
2022-12-30T02:04:26.569Z,9.50
2022-12-30T02:07:06.031Z,9.57
2022-12-30T02:09:38.916Z,9.63
2022-12-30T02:12:11.999Z,9.61
2022-12-30T02:14:46.817Z,9.52
2022-12-30T02:17:31.885Z,9.53
2022-12-30T02:20:39.833Z,9.54
2022-12-30T02:23:38.914Z,9.54
2022-12-30T02:26:56.176Z,9.54
2022-12-30T02:29:51.435Z,9.47
2022-12-30T02:32:28.338Z,9.49
2022-12-30T02:35:09.107Z,9.39
2022-12-30T02:37:48.639Z,9.45
2022-12-30T02:40:28.046Z,9.41
2022-12-30T02:43:22.348Z,9.39
2022-12-30T02:45:59.092Z,9.34
2022-12-30T02:48:33.705Z,9.24
2022-12-30T02:51:25.470Z,9.25
2022-12-30T02:53:57.228Z,9.20
2022-12-30T02:56:28.960Z,9.27
2022-12-30T02:59:15.957Z,9.27
2022-12-30T03:02:18.856Z,9.27
2022-12-30T03:05:04.934Z,9.31
2022-12-30T03:07:45.421Z,9.29
2022-12-30T03:10:41.134Z,9.32
2022-12-30T03:13:19.706Z,9.31
2022-12-30T03:15:57.285Z,9.33
2022-12-30T03:18:31.141Z,9.25
2022-12-30T03:21:06.948Z,9.28
2022-12-30T03:24:00.208Z,9.26
2022-12-30T03:26:49.696Z,9.29
2022-12-30T03:29:25.608Z,9.23
2022-12-30T03:31:58.290Z,9.22
2022-12-30T03:34:30.622Z,9.23
2022-12-30T03:37:11.273Z,9.22
2022-12-30T03:39:47.096Z,9.22
2022-12-30T03:42:20.974Z,9.17
2022-12-30T03:44:53.860Z,9.20
2022-12-30T03:47:25.910Z,9.08
2022-12-30T03:49:57.810Z,9.15
2022-12-30T03:52:29.680Z,9.17
2022-12-30T03:55:01.483Z,9.17
2022-12-30T03:57:33.506Z,9.27
2022-12-30T04:00:08.467Z,9.27
2022-12-30T04:02:44.299Z,9.27
2022-12-30T04:05:16.492Z,9.19
2022-12-30T04:07:48.903Z,9.28
2022-12-30T04:10:20.823Z,9.30
2022-12-30T04:12:52.832Z,9.30
2022-12-30T04:15:24.833Z,9.28
2022-12-30T04:17:56.542Z,9.28
2022-12-30T04:20:28.384Z,9.26
2022-12-30T04:23:01.092Z,9.32
2022-12-30T04:25:32.843Z,9.27
2022-12-30T04:28:04.609Z,9.20
2022-12-30T04:30:36.834Z,9.22
2022-12-30T04:33:08.847Z,9.25
2022-12-30T04:35:40.598Z,9.33
2022-12-30T04:38:12.440Z,9.32
2022-12-30T04:40:44.174Z,9.24
2022-12-30T04:43:16.030Z,9.28
2022-12-30T04:45:48.416Z,9.23
2022-12-30T04:48:20.108Z,9.21
2022-12-30T04:50:52.071Z,9.11
2022-12-30T04:53:24.349Z,9.14
2022-12-30T04:55:57.101Z,9.17
2022-12-30T04:58:28.883Z,9.16
2022-12-30T05:01:00.926Z,9.09
2022-12-30T05:03:32.920Z,9.01
2022-12-30T05:06:04.782Z,8.94
2022-12-30T05:08:36.616Z,9.02
2022-12-30T05:11:08.805Z,9.03
2022-12-30T05:13:46.287Z,8.98
2022-12-30T05:16:18.970Z,8.97
2022-12-30T05:18:50.915Z,8.90
2022-12-30T05:21:22.812Z,8.92
2022-12-30T05:24:11.917Z,8.93
2022-12-30T05:26:43.716Z,8.96
2022-12-30T05:29:16.011Z,8.96
2022-12-30T05:31:47.707Z,8.90
2022-12-30T05:34:19.645Z,8.83
2022-12-30T05:36:54.327Z,8.84
2022-12-30T05:39:26.140Z,8.84
2022-12-30T05:41:57.871Z,8.77
2022-12-30T05:44:29.707Z,8.70
2022-12-30T05:47:01.785Z,8.64
2022-12-30T05:49:33.612Z,8.60
2022-12-30T05:52:05.416Z,8.58
2022-12-30T05:54:37.665Z,8.53
2022-12-30T05:57:09.458Z,8.52
2022-12-30T05:59:41.266Z,8.45
2022-12-30T06:02:13.144Z,8.50
2022-12-30T06:04:44.964Z,8.37
2022-12-30T06:07:16.737Z,8.44
2022-12-30T06:09:48.440Z,8.42
2022-12-30T06:12:21.828Z,8.35
2022-12-30T06:14:53.623Z,8.32
2022-12-30T06:17:25.779Z,8.30
2022-12-30T06:19:57.540Z,8.20
2022-12-30T06:22:29.251Z,8.21
2022-12-30T06:25:01.130Z,8.20
2022-12-30T06:27:33.141Z,8.19
2022-12-30T06:30:05.540Z,8.20
2022-12-30T06:32:37.441Z,8.21
2022-12-30T06:35:10.680Z,8.13
2022-12-30T06:37:42.476Z,8.10
2022-12-30T06:40:15.596Z,8.10
2022-12-30T06:42:47.385Z,8.10
2022-12-30T06:45:19.189Z,8.12
2022-12-30T06:47:51.682Z,8.18
2022-12-30T06:50:23.818Z,8.09
2022-12-30T06:52:55.612Z,8.12
2022-12-30T06:55:32.546Z,8.13
2022-12-30T06:58:07.819Z,8.08
2022-12-30T07:00:39.614Z,7.94
2022-12-30T07:03:12.837Z,7.99
2022-12-30T07:05:44.939Z,7.99
2022-12-30T07:08:16.744Z,8.00
2022-12-30T07:10:51.947Z,8.02
2022-12-30T07:13:24.255Z,8.02
2022-12-30T07:15:56.280Z,7.98
2022-12-30T07:18:28.652Z,7.90
2022-12-30T07:21:00.465Z,7.94
2022-12-30T07:23:32.272Z,7.81
2022-12-30T07:26:04.185Z,7.87
2022-12-30T07:28:35.948Z,7.84
2022-12-30T07:31:07.961Z,7.88
2022-12-30T07:33:39.696Z,7.82
2022-12-30T07:36:11.764Z,7.86
2022-12-30T07:38:43.962Z,7.86
2022-12-30T07:41:15.738Z,7.88
2022-12-30T07:43:47.482Z,7.84
2022-12-30T07:46:19.589Z,7.70
2022-12-30T07:48:51.743Z,7.79
2022-12-30T07:51:23.549Z,7.82
2022-12-30T07:53:55.261Z,7.82
2022-12-30T07:56:27.110Z,7.81
2022-12-30T07:58:59.998Z,7.80
2022-12-30T08:01:32.609Z,7.82
2022-12-30T08:04:26.059Z,7.73
2022-12-30T08:06:54.628Z,7.77
2022-12-30T08:09:26.483Z,7.82
2022-12-30T08:11:58.367Z,7.77
2022-12-30T08:14:30.256Z,7.82
2022-12-30T08:17:02.061Z,7.75
2022-12-30T08:19:34.115Z,7.83
2022-12-30T08:22:05.872Z,7.82
2022-12-30T08:24:37.642Z,7.80
2022-12-30T08:27:09.347Z,7.74
2022-12-30T08:29:41.056Z,7.76
2022-12-30T08:32:12.935Z,7.73
2022-12-30T08:34:44.674Z,7.79
2022-12-30T08:37:16.512Z,7.82
2022-12-30T08:39:49.103Z,7.87
2022-12-30T08:42:21.203Z,7.90
2022-12-30T08:44:53.359Z,7.89
2022-12-30T08:47:25.228Z,7.94
2022-12-30T08:49:57.260Z,7.86
2022-12-30T08:52:29.695Z,7.80
2022-12-30T08:55:01.584Z,7.84
2022-12-30T08:57:34.009Z,7.98
2022-12-30T09:00:07.340Z,7.88
2022-12-30T09:02:39.434Z,7.95
2022-12-30T09:05:12.423Z,7.92
2022-12-30T09:07:59.186Z,7.90
2022-12-30T09:10:31.156Z,7.86
2022-12-30T09:13:03.147Z,8.00
2022-12-30T09:15:35.088Z,7.99
2022-12-30T09:18:07.748Z,8.07
2022-12-30T09:20:39.779Z,8.11
2022-12-30T09:23:11.728Z,8.15
2022-12-30T09:25:43.623Z,8.21
2022-12-30T09:28:15.455Z,8.34
2022-12-30T09:30:47.340Z,8.32
2022-12-30T09:33:19.145Z,8.37
2022-12-30T09:35:51.058Z,8.42
2022-12-30T09:38:23.077Z,8.57
2022-12-30T09:41:00.631Z,8.55
2022-12-30T09:43:39.003Z,8.64
2022-12-30T09:46:47.802Z,8.75
2022-12-30T09:49:27.318Z,8.88
2022-12-30T09:52:08.309Z,8.99
2022-12-30T09:54:42.693Z,9.01
2022-12-30T09:57:34.338Z,9.10
2022-12-30T10:00:14.599Z,9.10
2022-12-30T10:03:01.109Z,9.24
2022-12-30T10:05:53.454Z,9.17
2022-12-30T10:08:35.778Z,9.18
2022-12-30T10:11:28.060Z,9.29
2022-12-30T10:14:08.710Z,9.44
2022-12-30T10:16:56.445Z,9.54
2022-12-30T10:19:41.425Z,9.62
2022-12-30T10:22:23.763Z,9.61
2022-12-30T10:25:11.234Z,9.61
2022-12-30T10:27:47.257Z,9.72
2022-12-30T10:30:22.604Z,9.91
2022-12-30T10:33:01.005Z,10.10
2022-12-30T10:35:34.814Z,10.34
2022-12-30T10:38:14.009Z,10.30
2022-12-30T10:40:56.171Z,10.03
2022-12-30T10:43:40.975Z,10.06
2022-12-30T10:46:25.939Z,10.05
2022-12-30T10:49:13.220Z,10.11
2022-12-30T10:51:45.126Z,10.27
2022-12-30T10:54:17.637Z,10.36
2022-12-30T10:56:51.689Z,10.33
2022-12-30T10:59:26.590Z,10.34
2022-12-30T11:02:16.133Z,10.37
2022-12-30T11:04:48.093Z,10.47
2022-12-30T11:07:21.458Z,10.53
2022-12-30T11:09:55.814Z,10.61
2022-12-30T11:12:51.611Z,10.70
2022-12-30T11:15:26.373Z,10.76
2022-12-30T11:18:00.171Z,10.60
2022-12-30T11:20:39.090Z,10.85
2022-12-30T11:23:26.780Z,10.71
2022-12-30T11:26:00.938Z,10.71
2022-12-30T11:28:38.211Z,10.60
2022-12-30T11:31:13.066Z,10.51
2022-12-30T11:33:51.209Z,10.53
2022-12-30T11:36:33.699Z,10.49
2022-12-30T11:39:28.042Z,10.30
2022-12-30T11:42:02.974Z,10.18
2022-12-30T11:44:35.270Z,10.08
2022-12-30T11:47:12.524Z,10.15
2022-12-30T11:49:52.031Z,10.00
2022-12-30T11:52:27.771Z,10.15
2022-12-30T11:55:02.023Z,10.28
2022-12-30T11:57:36.897Z,10.32
2022-12-30T12:00:29.353Z,10.65
2022-12-30T12:03:06.115Z,10.66
2022-12-30T12:05:43.221Z,10.73
2022-12-30T12:08:24.434Z,10.94
2022-12-30T12:10:58.900Z,10.94
2022-12-30T12:13:39.866Z,10.82
2022-12-30T12:16:17.057Z,10.76
2022-12-30T12:18:56.793Z,11.03
2022-12-30T12:21:31.184Z,11.27
2022-12-30T12:24:14.336Z,11.42
2022-12-30T12:26:50.882Z,11.49
2022-12-30T12:29:24.147Z,11.51
2022-12-30T12:32:38.360Z,11.26
2022-12-30T12:35:11.248Z,11.41
2022-12-30T12:37:55.359Z,11.50
2022-12-30T12:40:42.422Z,11.66
2022-12-30T12:43:22.155Z,11.51
2022-12-30T12:46:14.792Z,11.39
2022-12-30T12:49:07.724Z,11.43
2022-12-30T12:51:53.693Z,11.43
2022-12-30T12:54:48.737Z,11.30
2022-12-30T12:57:30.904Z,11.16
2022-12-30T13:00:15.062Z,11.02
2022-12-30T13:03:20.894Z,10.90
2022-12-30T13:06:00.868Z,10.75
2022-12-30T13:08:51.346Z,10.62
2022-12-30T13:11:36.613Z,10.65
2022-12-30T13:14:22.507Z,10.57
2022-12-30T13:17:00.041Z,10.49
2022-12-30T13:19:35.422Z,10.55
2022-12-30T13:22:13.976Z,10.30
2022-12-30T13:24:51.431Z,10.44
2022-12-30T13:27:29.822Z,10.47
2022-12-30T13:30:04.030Z,10.49
2022-12-30T13:32:42.960Z,10.45
2022-12-30T13:35:31.317Z,10.36
2022-12-30T13:38:16.004Z,10.40
2022-12-30T13:40:57.640Z,10.41
2022-12-30T13:43:39.721Z,10.39
2022-12-30T13:46:20.450Z,10.37
2022-12-30T13:48:56.318Z,10.21
2022-12-30T13:51:30.912Z,10.13
2022-12-30T13:54:12.318Z,10.15
2022-12-30T13:56:45.828Z,10.07
2022-12-30T13:59:29.431Z,10.18
2022-12-30T14:02:35.548Z,10.20
2022-12-30T14:06:00.091Z,10.06
2022-12-30T14:08:47.345Z,10.02
2022-12-30T14:11:22.021Z,10.04
2022-12-30T14:14:20.507Z,10.04
2022-12-30T14:16:58.416Z,10.01
2022-12-30T14:19:50.886Z,9.98
2022-12-30T14:22:59.366Z,9.96
2022-12-30T14:25:41.611Z,9.82
2022-12-30T14:28:21.106Z,9.84
2022-12-30T14:30:54.579Z,9.81
2022-12-30T14:33:33.965Z,9.75
2022-12-30T14:36:10.924Z,9.71
2022-12-30T14:38:59.878Z,9.70
2022-12-30T14:41:45.368Z,9.66
2022-12-30T14:44:24.789Z,9.60
2022-12-30T14:46:59.539Z,9.56
2022-12-30T14:49:39.200Z,9.54
2022-12-30T14:52:21.179Z,9.51
2022-12-30T14:55:06.408Z,9.47
2022-12-30T14:57:43.476Z,9.44
2022-12-30T15:00:22.495Z,9.38
2022-12-30T15:02:56.601Z,9.35
2022-12-30T15:05:34.832Z,9.75
2022-12-30T15:08:09.968Z,9.43
2022-12-30T15:10:56.186Z,9.34
2022-12-30T15:13:31.873Z,9.28
2022-12-30T15:16:07.938Z,9.25
2022-12-30T15:18:41.739Z,9.20
2022-12-30T15:21:26.560Z,9.18
2022-12-30T15:24:12.268Z,9.15
2022-12-30T15:26:52.848Z,9.10
2022-12-30T15:29:28.459Z,9.06
2022-12-30T15:32:01.832Z,9.03
2022-12-30T15:34:36.858Z,9.00
2022-12-30T15:37:21.841Z,8.97
2022-12-30T15:39:57.933Z,8.93
2022-12-30T15:42:38.100Z,8.92
2022-12-30T15:45:27.248Z,8.87
2022-12-30T15:48:01.118Z,8.83
2022-12-30T15:50:40.279Z,8.80
2022-12-30T15:53:23.645Z,8.78
2022-12-30T15:55:57.094Z,8.72
2022-12-30T15:58:35.082Z,8.68
2022-12-30T16:01:12.800Z,8.67
2022-12-30T16:03:52.521Z,8.63
2022-12-30T16:06:24.970Z,8.57
2022-12-30T16:08:57.324Z,8.59
2022-12-30T16:12:00.597Z,8.58
2022-12-30T16:14:36.914Z,8.55
2022-12-30T16:17:26.113Z,8.54
2022-12-30T16:19:58.619Z,8.50
2022-12-30T16:22:33.004Z,8.56
2022-12-30T16:25:07.986Z,8.52
2022-12-30T16:27:47.385Z,8.49
2022-12-30T16:30:29.725Z,8.47
2022-12-30T16:33:15.538Z,8.43
2022-12-30T16:35:52.385Z,8.41
2022-12-30T16:38:26.354Z,8.39
2022-12-30T16:40:58.845Z,8.37
2022-12-30T16:43:30.908Z,8.36
2022-12-30T16:46:05.521Z,8.34
2022-12-30T16:48:37.390Z,8.33
2022-12-30T16:51:17.273Z,8.34
2022-12-30T16:53:49.366Z,8.32
2022-12-30T16:56:21.555Z,8.32
2022-12-30T16:58:53.589Z,8.27
2022-12-30T17:01:28.592Z,8.27
2022-12-30T17:04:01.131Z,8.26
2022-12-30T17:06:32.831Z,8.25
2022-12-30T17:09:05.906Z,8.23
2022-12-30T17:11:38.616Z,8.23
2022-12-30T17:14:15.504Z,8.21
2022-12-30T17:16:47.421Z,8.20
2022-12-30T17:19:19.441Z,8.17
2022-12-30T17:21:51.339Z,8.16
2022-12-30T17:24:23.271Z,8.15
2022-12-30T17:26:55.703Z,8.13
2022-12-30T17:29:27.675Z,8.13
2022-12-30T17:32:00.302Z,8.09
2022-12-30T17:34:30.639Z,8.07
2022-12-30T17:37:02.700Z,8.06
2022-12-30T17:39:34.496Z,8.06
2022-12-30T17:42:06.789Z,8.04
2022-12-30T17:44:38.840Z,8.02
2022-12-30T17:47:13.500Z,8.00
2022-12-30T17:49:45.586Z,8.02
2022-12-30T17:52:17.386Z,7.99
2022-12-30T17:54:51.324Z,7.98
2022-12-30T17:57:23.255Z,7.96
2022-12-30T17:59:55.017Z,7.99
2022-12-30T18:02:28.500Z,7.95
2022-12-30T18:05:00.696Z,7.95
2022-12-30T18:07:33.488Z,7.93
2022-12-30T18:10:05.720Z,7.91
2022-12-30T18:12:37.600Z,7.89
2022-12-30T18:15:11.684Z,7.86
2022-12-30T18:17:44.291Z,7.83
2022-12-30T18:20:17.582Z,7.82
2022-12-30T18:22:49.666Z,7.80
2022-12-30T18:25:21.506Z,7.81
2022-12-30T18:27:53.295Z,7.81
2022-12-30T18:30:25.447Z,7.81
2022-12-30T18:32:57.275Z,7.79
2022-12-30T18:35:29.207Z,7.73
2022-12-30T18:38:00.969Z,7.75
2022-12-30T18:40:32.745Z,7.76
2022-12-30T18:43:05.188Z,7.75
2022-12-30T18:45:39.233Z,7.76
2022-12-30T18:48:11.066Z,7.74
2022-12-30T18:50:44.734Z,7.72
2022-12-30T18:53:17.214Z,7.71
2022-12-30T18:55:58.461Z,7.70
2022-12-30T18:58:30.268Z,7.69
2022-12-30T19:01:06.341Z,7.69
2022-12-30T19:03:38.834Z,7.68
2022-12-30T19:06:10.756Z,7.69
2022-12-30T19:08:44.044Z,7.68
2022-12-30T19:11:17.938Z,7.64
2022-12-30T19:13:50.854Z,7.62
2022-12-30T19:16:25.091Z,7.61
2022-12-30T19:18:59.652Z,7.63
2022-12-30T19:21:33.323Z,7.59
2022-12-30T19:24:06.401Z,7.57
2022-12-30T19:26:39.302Z,7.59
2022-12-30T19:29:12.491Z,7.57
2022-12-30T19:31:45.651Z,7.54
2022-12-30T19:34:19.488Z,7.49
2022-12-30T19:36:51.606Z,7.52
2022-12-30T19:39:23.593Z,7.53
2022-12-30T19:41:56.356Z,7.52
2022-12-30T19:44:29.011Z,7.48
2022-12-30T19:47:01.916Z,7.51
2022-12-30T19:49:34.675Z,7.52
2022-12-30T19:52:06.883Z,7.56
2022-12-30T19:54:38.832Z,7.55
2022-12-30T19:57:10.929Z,7.46
2022-12-30T19:59:43.662Z,7.56
2022-12-30T20:02:15.884Z,7.59
2022-12-30T20:04:48.506Z,7.61
2022-12-30T20:07:23.005Z,7.59
2022-12-30T20:10:25.383Z,7.57
2022-12-30T20:12:47.817Z,7.56
2022-12-30T20:15:22.264Z,7.56
2022-12-30T20:17:54.589Z,7.57
2022-12-30T20:20:27.146Z,7.61
2022-12-30T20:22:59.457Z,7.59
2022-12-30T20:25:32.282Z,7.59
2022-12-30T20:28:04.322Z,7.55
2022-12-30T20:30:36.442Z,7.51
2022-12-30T20:33:08.437Z,7.55
2022-12-30T20:35:40.677Z,7.57
2022-12-30T20:38:13.411Z,7.60
2022-12-30T20:40:45.555Z,7.57
2022-12-30T20:43:18.112Z,7.55
2022-12-30T20:45:50.632Z,7.56
2022-12-30T20:48:23.252Z,7.55
2022-12-30T20:50:55.807Z,7.53
2022-12-30T20:53:28.911Z,7.53
2022-12-30T20:56:06.514Z,7.57
2022-12-30T20:58:39.691Z,7.57
2022-12-30T21:01:15.138Z,7.58
2022-12-30T21:03:48.293Z,7.59
2022-12-30T21:06:21.107Z,7.60
2022-12-30T21:08:53.557Z,7.59
2022-12-30T21:11:26.749Z,7.59
2022-12-30T21:13:59.421Z,7.63
2022-12-30T21:16:33.987Z,7.63
2022-12-30T21:19:06.223Z,9.63
2022-12-30T21:21:38.557Z,11.07
2022-12-30T21:24:11.258Z,11.26
2022-12-30T21:26:41.819Z,11.80
2022-12-30T21:29:13.719Z,12.27
2022-12-30T21:31:46.450Z,12.41
2022-12-30T21:34:19.000Z,12.32
2022-12-30T21:36:54.302Z,12.67
2022-12-30T21:39:49.034Z,12.87
2022-12-30T21:42:38.792Z,12.78
2022-12-30T21:45:30.811Z,12.68
2022-12-30T21:48:20.148Z,13.01
2022-12-30T21:51:10.027Z,13.08
2022-12-30T21:57:11.420Z,12.91
2022-12-30T22:00:05.137Z,13.17
2022-12-30T22:02:51.797Z,13.40
2022-12-30T22:05:29.827Z,13.25
2022-12-30T22:08:03.507Z,13.12
2022-12-30T22:10:39.972Z,13.30
2022-12-30T22:13:13.802Z,13.12
2022-12-30T22:15:45.713Z,13.26
2022-12-30T22:18:22.122Z,13.30
2022-12-30T22:20:55.162Z,13.26
2022-12-30T22:23:27.151Z,13.26
2022-12-30T22:26:02.978Z,13.21
2022-12-30T22:28:34.782Z,13.28
2022-12-30T22:31:07.825Z,13.47
2022-12-30T22:33:39.832Z,13.39
2022-12-30T22:36:14.005Z,12.97
2022-12-30T22:38:47.396Z,11.54
2022-12-30T22:41:20.162Z,10.75
2022-12-30T22:43:54.282Z,10.33
2022-12-30T22:46:27.814Z,10.07
2022-12-30T22:49:01.046Z,9.84
2022-12-30T22:51:37.531Z,9.68
2022-12-30T22:54:15.840Z,9.57
2022-12-30T22:56:48.376Z,9.46
2022-12-30T22:59:20.805Z,9.40
2022-12-30T23:01:53.101Z,9.26
2022-12-30T23:04:25.048Z,9.19
2022-12-30T23:06:56.836Z,9.14
2022-12-30T23:09:29.731Z,9.02
2022-12-30T23:12:05.390Z,8.88
2022-12-30T23:14:55.359Z,8.82
2022-12-30T23:17:27.103Z,8.72
2022-12-30T23:19:59.145Z,8.68
2022-12-30T23:22:54.111Z,8.65
2022-12-30T23:25:26.388Z,8.59
2022-12-30T23:27:58.106Z,8.55
2022-12-30T23:30:30.012Z,8.52
2022-12-30T23:33:01.865Z,8.53
2022-12-30T23:35:36.229Z,8.51
2022-12-30T23:38:08.862Z,8.46
2022-12-30T23:40:40.943Z,8.44
2022-12-30T23:43:12.828Z,8.40
2022-12-30T23:45:45.780Z,8.38
2022-12-30T23:48:18.087Z,8.38
2022-12-30T23:50:49.906Z,8.36
2022-12-30T23:53:22.470Z,8.35
2022-12-30T23:55:54.094Z,8.38
2022-12-30T23:58:26.021Z,8.34
